createdAt,value
2018-05-08T00:00:21.539Z,4.80
2018-05-08T00:02:49.025Z,5.10
2018-05-08T00:05:16.521Z,4.93
2018-05-08T00:07:44.026Z,4.93
2018-05-08T00:10:12.338Z,5.07
2018-05-08T00:12:39.854Z,5.47
2018-05-08T00:15:08.159Z,5.40
2018-05-08T00:17:35.666Z,6.10
2018-05-08T00:20:03.977Z,5.20
2018-05-08T00:22:32.238Z,5.10
2018-05-08T00:25:00.496Z,4.80
2018-05-08T00:27:28.027Z,4.60
2018-05-08T00:29:56.289Z,5.13
2018-05-08T00:32:23.801Z,4.63
2018-05-08T00:34:52.055Z,4.77
2018-05-08T00:37:19.557Z,4.57
2018-05-08T00:39:47.047Z,4.80
2018-05-08T00:42:14.537Z,5.00
2018-05-08T00:44:42.029Z,5.30
2018-05-08T00:47:09.573Z,5.70
2018-05-08T00:49:37.915Z,5.10
2018-05-08T00:52:05.414Z,5.30
2018-05-08T00:54:45.270Z,6.00
2018-05-08T00:57:12.775Z,4.90
2018-05-08T00:59:40.249Z,5.40
2018-05-08T01:02:08.526Z,5.20
2018-05-08T01:04:36.019Z,5.63
2018-05-08T01:07:03.530Z,5.40
2018-05-08T01:09:31.034Z,5.20
2018-05-08T01:11:58.537Z,5.07
2018-05-08T01:14:26.065Z,4.63
2018-05-08T01:16:53.558Z,5.07
2018-05-08T01:19:21.072Z,5.07
2018-05-08T01:21:48.583Z,4.83
2018-05-08T01:24:16.084Z,5.43
2018-05-08T01:26:43.581Z,4.60
2018-05-08T01:29:11.071Z,4.27
2018-05-08T01:31:39.381Z,4.73
2018-05-08T01:34:11.139Z,4.60
2018-05-08T01:36:38.631Z,4.80
2018-05-08T01:39:06.132Z,4.70
2018-05-08T01:41:34.401Z,4.63
2018-05-08T01:44:01.927Z,5.00
2018-05-08T01:46:29.487Z,4.70
2018-05-08T01:48:56.982Z,4.67
2018-05-08T01:51:25.250Z,4.50
2018-05-08T01:53:53.533Z,4.83
2018-05-08T01:56:21.041Z,4.57
2018-05-08T01:58:48.618Z,4.47
2018-05-08T02:01:16.124Z,4.90
2018-05-08T02:03:49.309Z,5.17
2018-05-08T02:06:16.831Z,5.20
2018-05-08T02:08:44.346Z,5.00
2018-05-08T02:11:11.945Z,5.40
2018-05-08T02:13:39.416Z,5.60
2018-05-08T02:16:07.671Z,5.00
2018-05-08T02:18:35.205Z,5.10
2018-05-08T02:21:02.719Z,5.00
2018-05-08T02:23:30.216Z,5.53
2018-05-08T02:25:57.784Z,5.70
2018-05-08T02:28:25.292Z,4.87
2018-05-08T02:30:52.795Z,5.23
2018-05-08T02:33:20.338Z,4.70
2018-05-08T02:35:47.841Z,5.10
2018-05-08T02:38:15.422Z,5.33
2018-05-08T02:40:42.993Z,4.90
2018-05-08T02:43:10.482Z,4.80
2018-05-08T02:45:37.998Z,4.40
2018-05-08T02:48:06.261Z,4.80
2018-05-08T02:50:34.599Z,5.10
2018-05-08T02:53:02.114Z,6.00
2018-05-08T02:55:29.633Z,6.10
2018-05-08T02:57:57.192Z,5.73
2018-05-08T03:00:24.703Z,5.97
2018-05-08T03:02:52.259Z,6.00
2018-05-08T03:05:19.776Z,5.50
2018-05-08T03:07:48.056Z,5.83
2018-05-08T03:10:15.537Z,5.43
2018-05-08T03:12:43.046Z,6.20
2018-05-08T03:15:10.552Z,7.03
2018-05-08T03:17:38.065Z,6.00
2018-05-08T03:20:05.578Z,5.57
2018-05-08T03:22:33.178Z,5.73
2018-05-08T03:25:00.685Z,5.97
2018-05-08T03:27:28.190Z,6.67
2018-05-08T03:29:55.697Z,5.90
2018-05-08T03:32:23.187Z,6.27
2018-05-08T03:34:50.730Z,6.17
2018-05-08T03:37:18.260Z,5.53
2018-05-08T03:39:46.532Z,5.87
2018-05-08T03:42:14.826Z,5.87
2018-05-08T03:44:42.376Z,6.67
2018-05-08T03:47:09.922Z,6.57
2018-05-08T03:49:37.442Z,6.60
2018-05-08T03:52:04.961Z,6.03
2018-05-08T03:54:32.446Z,6.10
2018-05-08T03:57:00.029Z,5.33
2018-05-08T03:59:27.525Z,6.10
2018-05-08T04:02:07.529Z,5.70
2018-05-08T04:04:46.938Z,5.83
2018-05-08T04:07:26.313Z,6.70
2018-05-08T04:09:55.418Z,5.97
2018-05-08T04:12:22.914Z,6.40
2018-05-08T04:15:09.495Z,6.40
2018-05-08T04:17:37.847Z,5.93
2018-05-08T04:20:05.368Z,6.60
2018-05-08T04:22:32.932Z,6.93
2018-05-08T04:25:00.451Z,5.93
2018-05-08T04:27:28.711Z,6.33
2018-05-08T04:29:56.207Z,7.80
2018-05-08T04:32:23.771Z,5.97
2018-05-08T04:34:51.317Z,6.80
2018-05-08T04:37:18.863Z,6.80
2018-05-08T04:39:47.156Z,6.37
2018-05-08T04:42:15.249Z,7.17
2018-05-08T04:44:42.752Z,6.70
2018-05-08T04:47:10.262Z,7.50
2018-05-08T04:49:37.771Z,7.37
2018-05-08T04:52:05.281Z,7.80
2018-05-08T04:54:32.813Z,7.10
2018-05-08T04:57:00.303Z,7.10
2018-05-08T04:59:31.481Z,6.63
2018-05-08T05:01:59.012Z,6.83
2018-05-08T05:04:26.497Z,7.47
2018-05-08T05:06:54.814Z,6.30
2018-05-08T05:09:22.262Z,6.70
2018-05-08T05:11:49.814Z,6.70
2018-05-08T05:14:18.058Z,6.60
2018-05-08T05:16:45.605Z,6.50
2018-05-08T05:19:13.085Z,6.90
2018-05-08T05:21:41.353Z,6.77
2018-05-08T05:24:08.850Z,6.37
2018-05-08T05:26:36.413Z,6.77
2018-05-08T05:29:03.940Z,6.70
2018-05-08T05:31:32.240Z,6.50
2018-05-08T05:34:00.487Z,6.33
2018-05-08T05:36:28.807Z,6.10
2018-05-08T05:38:56.368Z,7.17
2018-05-08T05:41:24.199Z,7.00
2018-05-08T05:43:52.441Z,6.53
2018-05-08T05:46:19.950Z,6.33
2018-05-08T05:48:47.439Z,6.93
2018-05-08T05:51:14.958Z,6.70
2018-05-08T05:53:42.445Z,6.20
2018-05-08T05:56:09.938Z,6.70
2018-05-08T05:58:37.490Z,6.30
2018-05-08T06:01:16.725Z,6.93
2018-05-08T06:03:45.005Z,6.40
2018-05-08T06:06:13.269Z,6.60
2018-05-08T06:08:40.897Z,6.57
2018-05-08T06:11:09.182Z,7.17
2018-05-08T06:13:50.035Z,6.57
2018-05-08T06:16:17.607Z,6.07
2018-05-08T06:18:45.449Z,6.57
2018-05-08T06:21:12.962Z,6.70
2018-05-08T06:23:40.706Z,5.90
2018-05-08T06:26:08.244Z,6.87
2018-05-08T06:28:41.436Z,6.80
2018-05-08T06:31:08.982Z,7.40
2018-05-08T06:33:36.553Z,8.00
2018-05-08T06:36:04.062Z,7.07
2018-05-08T06:38:32.385Z,8.20
2018-05-08T06:40:59.884Z,8.00
2018-05-08T06:43:27.393Z,8.23
2018-05-08T06:45:54.943Z,8.93
2018-05-08T06:48:22.919Z,8.00
2018-05-08T06:50:51.259Z,8.57
2018-05-08T06:53:18.744Z,9.17
2018-05-08T06:55:46.248Z,8.37
2018-05-08T06:58:13.772Z,7.90
2018-05-08T07:00:41.267Z,7.97
2018-05-08T07:03:08.779Z,7.57
2018-05-08T07:05:36.307Z,7.70
2018-05-08T07:08:04.582Z,7.23
2018-05-08T07:10:32.884Z,8.40
2018-05-08T07:13:00.421Z,7.20
2018-05-08T07:15:28.813Z,7.30
2018-05-08T07:17:56.354Z,8.13
2018-05-08T07:20:24.621Z,7.20
2018-05-08T07:22:52.166Z,7.53
2018-05-08T07:25:19.685Z,7.23
2018-05-08T07:27:47.196Z,7.10
2018-05-08T07:30:14.695Z,7.70
2018-05-08T07:32:42.221Z,8.00
2018-05-08T07:35:10.479Z,7.40
2018-05-08T07:37:38.767Z,7.90
2018-05-08T07:40:07.183Z,7.83
2018-05-08T07:42:34.710Z,8.50
2018-05-08T07:45:02.953Z,7.80
2018-05-08T07:47:30.458Z,7.50
2018-05-08T07:49:58.073Z,9.17
2018-05-08T07:52:25.602Z,8.47
2018-05-08T07:54:53.080Z,7.30
2018-05-08T07:57:20.569Z,8.13
2018-05-08T07:59:48.077Z,7.93
2018-05-08T08:02:15.561Z,8.30
2018-05-08T08:04:43.064Z,7.20
2018-05-08T08:07:10.586Z,7.80
2018-05-08T08:09:38.074Z,7.20
2018-05-08T08:12:05.554Z,8.00
2018-05-08T08:14:33.069Z,7.80
2018-05-08T08:17:01.371Z,7.97
2018-05-08T08:19:28.860Z,8.50
2018-05-08T08:21:56.345Z,8.87
2018-05-08T08:24:23.926Z,8.93
2018-05-08T08:26:51.460Z,8.67
2018-05-08T08:29:19.791Z,8.30
2018-05-08T08:31:47.289Z,9.17
2018-05-08T08:34:14.840Z,8.77
2018-05-08T08:36:42.337Z,9.00
2018-05-08T08:39:10.602Z,9.80
2018-05-08T08:41:38.148Z,8.60
2018-05-08T08:44:05.759Z,8.43
2018-05-08T08:46:33.762Z,8.97
2018-05-08T08:49:01.265Z,8.10
2018-05-08T08:51:28.751Z,7.60
2018-05-08T08:53:56.278Z,8.10
2018-05-08T08:56:23.794Z,8.13
2018-05-08T08:58:51.320Z,8.30
2018-05-08T09:01:18.872Z,7.53
2018-05-08T09:03:46.369Z,9.20
2018-05-08T09:06:24.433Z,9.07
2018-05-08T09:08:51.936Z,8.73
2018-05-08T09:11:19.504Z,8.80
2018-05-08T09:13:47.019Z,9.07
2018-05-08T09:16:14.493Z,8.40
2018-05-08T09:18:41.986Z,8.63
2018-05-08T09:21:10.311Z,8.60
2018-05-08T09:23:37.810Z,9.20
2018-05-08T09:26:05.330Z,8.63
2018-05-08T09:28:32.900Z,8.40
2018-05-08T09:31:00.516Z,9.00
2018-05-08T09:33:27.990Z,8.87
2018-05-08T09:35:55.593Z,8.40
2018-05-08T09:38:23.089Z,10.37
2018-05-08T09:40:50.651Z,10.10
2018-05-08T09:43:18.194Z,8.73
2018-05-08T09:45:46.475Z,8.53
2018-05-08T09:48:14.765Z,8.80
2018-05-08T09:50:42.259Z,8.20
2018-05-08T09:53:09.746Z,9.30
2018-05-08T09:55:37.347Z,8.47
2018-05-08T09:58:04.839Z,9.20
2018-05-08T10:00:32.331Z,9.93
2018-05-08T10:03:00.701Z,10.80
2018-05-08T10:05:28.957Z,8.40
2018-05-08T10:07:56.437Z,9.30
2018-05-08T10:10:24.741Z,8.10
2018-05-08T10:12:52.239Z,13.13
2018-05-08T10:15:19.752Z,9.13
2018-05-08T10:17:47.286Z,8.87
2018-05-08T10:20:15.639Z,12.97
2018-05-08T10:22:43.171Z,8.00
2018-05-08T10:25:11.431Z,8.90
2018-05-08T10:27:38.944Z,8.50
2018-05-08T10:30:08.243Z,8.00
2018-05-08T10:32:35.759Z,9.00
2018-05-08T10:35:03.261Z,9.47
2018-05-08T10:37:30.762Z,8.47
2018-05-08T10:39:58.299Z,16.40
2018-05-08T10:42:26.551Z,8.67
2018-05-08T10:44:54.817Z,8.03
2018-05-08T10:47:23.150Z,7.13
2018-05-08T10:49:50.654Z,9.30
2018-05-08T10:52:18.918Z,7.93
2018-05-08T10:54:47.234Z,10.60
2018-05-08T10:57:14.806Z,8.00
2018-05-08T10:59:42.351Z,8.80
2018-05-08T11:02:10.654Z,14.50
2018-05-08T11:04:38.152Z,7.33
2018-05-08T11:07:05.777Z,7.97
2018-05-08T11:09:33.283Z,8.50
2018-05-08T11:12:00.831Z,7.80
2018-05-08T11:14:29.165Z,8.03
2018-05-08T11:16:56.787Z,7.63
2018-05-08T11:19:25.139Z,9.50
2018-05-08T11:21:52.632Z,7.90
2018-05-08T11:24:20.167Z,8.50
2018-05-08T11:26:47.847Z,8.50
2018-05-08T11:29:15.224Z,8.50
2018-05-08T11:31:42.739Z,8.03
2018-05-08T11:34:10.358Z,9.40
2018-05-08T11:36:37.865Z,8.10
2018-05-08T11:39:06.182Z,8.30
2018-05-08T11:41:33.701Z,7.70
2018-05-08T11:44:01.306Z,8.30
2018-05-08T11:46:28.852Z,7.40
2018-05-08T11:48:56.386Z,8.00
2018-05-08T11:51:24.636Z,7.70
2018-05-08T11:53:52.127Z,7.17
2018-05-08T11:56:19.679Z,7.07
2018-05-08T11:58:48.614Z,8.10
2018-05-08T12:01:16.125Z,7.60
2018-05-08T12:03:44.433Z,8.30
2018-05-08T12:06:11.974Z,7.90
2018-05-08T12:08:39.516Z,8.20
2018-05-08T12:11:07.115Z,8.40
2018-05-08T12:13:34.620Z,7.53
2018-05-08T12:16:02.134Z,8.37
2018-05-08T12:18:29.673Z,7.90
2018-05-08T12:20:58.094Z,8.00
2018-05-08T12:23:25.579Z,7.27
2018-05-08T12:25:53.879Z,8.30
2018-05-08T12:28:21.362Z,8.40
2018-05-08T12:30:48.861Z,8.47
2018-05-08T12:33:16.497Z,8.20
2018-05-08T12:35:44.028Z,8.20
2018-05-08T12:38:11.554Z,7.80
2018-05-08T12:40:39.106Z,7.83
2018-05-08T12:43:07.673Z,7.50
2018-05-08T12:45:35.173Z,7.93
2018-05-08T12:48:02.685Z,7.57
2018-05-08T12:50:30.248Z,8.17
2018-05-08T12:52:57.742Z,8.60
2018-05-08T12:55:25.300Z,8.40
2018-05-08T12:57:52.791Z,8.43
2018-05-08T13:00:20.343Z,7.90
2018-05-08T13:02:47.936Z,7.53
2018-05-08T13:05:15.477Z,8.07
2018-05-08T13:07:42.948Z,8.00
2018-05-08T13:10:11.287Z,8.00
2018-05-08T13:12:38.844Z,7.93
2018-05-08T13:15:06.351Z,7.87
2018-05-08T13:17:33.861Z,8.30
2018-05-08T13:20:01.365Z,9.40
2018-05-08T13:22:29.682Z,8.20
2018-05-08T13:24:57.198Z,8.00
2018-05-08T13:27:24.711Z,8.50
2018-05-08T13:29:52.181Z,8.03
2018-05-08T13:32:19.726Z,8.20
2018-05-08T13:34:47.252Z,8.80
2018-05-08T13:37:15.557Z,8.10
2018-05-08T13:39:43.124Z,9.23
2018-05-08T13:42:10.623Z,8.13
2018-05-08T13:44:38.398Z,8.60
2018-05-08T13:47:06.685Z,8.80
2018-05-08T13:49:34.968Z,7.90
2018-05-08T13:52:02.466Z,8.63
2018-05-08T13:54:29.954Z,8.60
2018-05-08T13:56:57.517Z,8.37
2018-05-08T13:59:25.769Z,8.20
2018-05-08T14:01:53.267Z,7.60
2018-05-08T14:04:21.568Z,8.43
2018-05-08T14:06:49.201Z,8.32
2018-05-08T14:09:16.621Z,7.73
2018-05-08T14:11:44.145Z,8.30
2018-05-08T14:14:11.781Z,8.40
2018-05-08T14:16:39.299Z,8.23
2018-05-08T14:19:06.809Z,8.98
2018-05-08T14:21:34.400Z,7.82
2018-05-08T14:24:01.915Z,7.87
2018-05-08T14:26:29.452Z,8.10
2018-05-08T14:28:57.831Z,8.05
2018-05-08T14:31:26.130Z,8.13
2018-05-08T14:33:53.624Z,7.37
2018-05-08T14:36:21.167Z,8.35
2018-05-08T14:38:49.054Z,7.95
2018-05-08T14:41:16.647Z,6.90
2018-05-08T14:43:45.004Z,7.22
2018-05-08T14:46:12.462Z,7.20
2018-05-08T14:48:39.985Z,7.13
2018-05-08T14:51:07.472Z,6.87
2018-05-08T14:53:34.995Z,6.93
2018-05-08T14:56:02.612Z,6.90
2018-05-08T14:58:30.870Z,6.53
2018-05-08T15:00:58.364Z,6.90
2018-05-08T15:03:26.642Z,6.40
2018-05-08T15:05:54.169Z,6.12
2018-05-08T15:08:21.684Z,6.78
2018-05-08T15:10:49.181Z,5.93
2018-05-08T15:13:16.799Z,5.45
2018-05-08T15:15:45.050Z,6.87
2018-05-08T15:18:12.544Z,6.47
2018-05-08T15:20:40.022Z,6.35
2018-05-08T15:23:07.786Z,6.43
2018-05-08T15:25:35.356Z,6.32
2018-05-08T15:28:02.955Z,6.72
2018-05-08T15:30:30.500Z,6.25
2018-05-08T15:32:58.786Z,6.35
2018-05-08T15:35:26.507Z,5.57
2018-05-08T15:37:54.053Z,6.35
2018-05-08T15:40:21.566Z,5.93
2018-05-08T15:42:49.798Z,6.60
2018-05-08T15:45:17.347Z,6.65
2018-05-08T15:47:44.829Z,6.90
2018-05-08T15:50:13.099Z,7.25
2018-05-08T15:52:41.462Z,6.37
2018-05-08T15:55:09.052Z,6.18
2018-05-08T15:57:36.452Z,6.43
2018-05-08T16:00:04.048Z,5.90
2018-05-08T16:02:31.594Z,6.32
2018-05-08T16:04:59.147Z,7.00
2018-05-08T16:07:26.674Z,6.60
2018-05-08T16:09:54.174Z,6.60
2018-05-08T16:12:21.656Z,6.90
2018-05-08T16:14:49.280Z,7.00
2018-05-08T16:17:16.962Z,5.90
2018-05-08T16:19:44.484Z,6.50
2018-05-08T16:22:12.829Z,6.20
2018-05-08T16:24:40.485Z,6.03
2018-05-08T16:27:08.033Z,6.50
2018-05-08T16:29:35.645Z,6.70
2018-05-08T16:32:03.129Z,7.10
2018-05-08T16:34:30.651Z,6.83
2018-05-08T16:36:58.230Z,5.80
2018-05-08T16:39:25.752Z,6.50
2018-05-08T16:41:53.241Z,5.90
2018-05-08T16:44:20.758Z,6.03
2018-05-08T16:46:48.292Z,5.87
2018-05-08T16:49:15.796Z,6.10
2018-05-08T16:51:43.343Z,6.50
2018-05-08T16:54:10.842Z,6.43
2018-05-08T16:56:40.409Z,5.93
2018-05-08T16:59:08.395Z,6.50
2018-05-08T17:01:35.898Z,6.23
2018-05-08T17:04:06.100Z,5.97
2018-05-08T17:06:39.653Z,6.97
2018-05-08T17:09:07.995Z,6.80
2018-05-08T17:11:36.281Z,7.17
2018-05-08T17:14:04.119Z,6.63
2018-05-08T17:16:31.737Z,6.37
2018-05-08T17:18:59.374Z,6.60
2018-05-08T17:21:27.779Z,8.13
2018-05-08T17:23:55.609Z,8.40
2018-05-08T17:26:23.252Z,8.00
2018-05-08T17:28:51.800Z,8.03
2018-05-08T17:31:20.479Z,8.17
2018-05-08T17:33:48.096Z,6.43
2018-05-08T17:36:15.749Z,6.67
2018-05-08T17:38:44.025Z,6.93
2018-05-08T17:41:12.400Z,6.73
2018-05-08T17:43:40.708Z,7.20
2018-05-08T17:46:08.224Z,6.33
2018-05-08T17:48:36.582Z,6.70
2018-05-08T17:51:04.143Z,6.40
2018-05-08T17:53:32.462Z,6.33
2018-05-08T17:55:59.984Z,6.80
2018-05-08T17:58:27.502Z,5.77
2018-05-08T18:00:55.055Z,6.30
2018-05-08T18:03:22.639Z,6.50
2018-05-08T18:05:50.173Z,5.50
2018-05-08T18:08:17.790Z,5.33
2018-05-08T18:10:45.315Z,5.30
2018-05-08T18:13:12.831Z,5.40
2018-05-08T18:15:40.355Z,5.40
2018-05-08T18:18:07.945Z,5.37
2018-05-08T18:20:35.532Z,5.53
2018-05-08T18:23:03.114Z,5.63
2018-05-08T18:25:30.654Z,6.20
2018-05-08T18:27:58.157Z,6.07
2018-05-08T18:30:25.643Z,7.30
2018-05-08T18:32:53.128Z,6.20
2018-05-08T18:35:20.670Z,5.97
2018-05-08T18:37:48.212Z,5.97
2018-05-08T18:40:15.710Z,6.10
2018-05-08T18:42:43.248Z,6.20
2018-05-08T18:45:10.864Z,5.30
2018-05-08T18:47:38.358Z,5.70
2018-05-08T18:50:05.920Z,6.20
2018-05-08T18:52:33.525Z,6.73
2018-05-08T18:55:01.019Z,6.20
2018-05-08T18:57:28.638Z,6.20
2018-05-08T19:00:01.790Z,5.73
2018-05-08T19:02:29.453Z,6.70
2018-05-08T19:04:57.093Z,6.20
2018-05-08T19:07:24.610Z,6.00
2018-05-08T19:09:52.174Z,6.67
2018-05-08T19:12:19.679Z,7.40
2018-05-08T19:14:47.334Z,5.70
2018-05-08T19:17:14.769Z,5.33
2018-05-08T19:19:47.888Z,5.30
2018-05-08T19:22:15.416Z,6.43
2018-05-08T19:24:42.903Z,6.70
2018-05-08T19:27:24.721Z,7.07
2018-05-08T19:29:57.821Z,6.00
2018-05-08T19:32:25.356Z,6.40
2018-05-08T19:34:58.491Z,5.03
2018-05-08T19:37:32.499Z,6.10
2018-05-08T19:40:00.148Z,5.90
2018-05-08T19:42:27.671Z,5.13
2018-05-08T19:44:55.318Z,5.10
2018-05-08T19:47:31.040Z,4.70
2018-05-08T19:52:32.433Z,6.00
2018-05-08T19:54:59.958Z,5.93
2018-05-08T19:57:27.565Z,6.27
2018-05-08T20:02:58.131Z,5.10
2018-05-08T20:05:25.679Z,4.70
2018-05-08T20:07:53.157Z,5.67
2018-05-08T20:10:20.708Z,5.43
2018-05-08T20:12:48.338Z,5.10
2018-05-08T20:15:15.854Z,4.20
2018-05-08T20:17:43.350Z,4.90
2018-05-08T20:20:10.842Z,5.00
2018-05-08T20:22:38.347Z,4.40
2018-05-08T20:25:05.932Z,5.33
2018-05-08T20:27:33.486Z,5.20
2018-05-08T20:30:00.993Z,4.70
2018-05-08T20:32:28.484Z,5.70
2018-05-08T20:34:56.004Z,4.40
2018-05-08T20:37:23.515Z,4.27
2018-05-08T20:39:51.008Z,4.20
2018-05-08T20:42:18.541Z,4.20
2018-05-08T20:44:46.097Z,4.67
2018-05-08T20:47:13.620Z,5.40
2018-05-08T20:49:41.886Z,4.40
2018-05-08T20:52:10.368Z,4.50
2018-05-08T20:54:37.859Z,4.30
2018-05-08T20:57:05.348Z,4.10
2018-05-08T20:59:33.063Z,4.20
2018-05-08T21:02:00.555Z,5.03
2018-05-08T21:04:28.084Z,6.00
2018-05-08T21:06:59.085Z,4.80
2018-05-08T21:09:26.749Z,4.43
2018-05-08T21:11:54.340Z,5.20
2018-05-08T21:14:21.889Z,4.50
2018-05-08T21:16:49.402Z,5.00
2018-05-08T21:19:17.842Z,5.50
2018-05-08T21:21:45.331Z,4.90
2018-05-08T21:24:12.811Z,4.60
2018-05-08T21:26:40.322Z,4.47
2018-05-08T21:29:07.859Z,5.37
2018-05-08T21:31:35.377Z,4.93
2018-05-08T21:34:02.864Z,4.70
2018-05-08T21:36:31.193Z,4.60
2018-05-08T21:38:58.703Z,4.53
2018-05-08T21:41:26.945Z,3.90
2018-05-08T21:43:54.468Z,4.13
2018-05-08T21:46:21.977Z,4.80
2018-05-08T21:48:49.473Z,4.90
2018-05-08T21:51:17.195Z,5.07
2018-05-08T21:53:44.747Z,4.00
2018-05-08T21:56:13.017Z,5.00
2018-05-08T21:58:40.547Z,4.63
2018-05-08T22:01:08.045Z,4.70
2018-05-08T22:03:36.310Z,4.30
2018-05-08T22:06:03.816Z,4.67
2018-05-08T22:08:31.302Z,4.63
2018-05-08T22:10:58.808Z,4.93
2018-05-08T22:13:27.125Z,4.80
2018-05-08T22:15:54.686Z,5.00
2018-05-08T22:18:22.175Z,5.50
2018-05-08T22:32:21.316Z,3.77
2018-05-08T22:37:42.259Z,4.53
2018-05-08T22:40:10.589Z,5.10
2018-05-08T22:42:38.205Z,5.80
2018-05-08T22:51:05.461Z,4.60
2018-05-08T22:53:33.047Z,4.30
2018-05-08T22:56:00.728Z,4.80
2018-05-08T23:13:00.957Z,4.57
2018-05-08T23:15:28.470Z,4.50
2018-05-08T23:17:56.022Z,5.37
2018-05-08T23:20:23.535Z,5.00
2018-05-08T23:22:51.112Z,5.03
2018-05-08T23:25:18.671Z,4.60
2018-05-08T23:27:46.191Z,4.57
2018-05-08T23:30:14.490Z,4.50
2018-05-08T23:32:42.032Z,4.40
2018-05-08T23:35:10.305Z,4.60
2018-05-08T23:37:37.844Z,4.70
2018-05-08T23:40:05.335Z,4.97
2018-05-08T23:42:32.865Z,4.50
2018-05-08T23:45:00.442Z,5.00
2018-05-08T23:47:27.969Z,4.30
2018-05-08T23:52:51.891Z,4.47
2018-05-08T23:55:20.165Z,4.17
2018-05-08T23:57:47.734Z,3.90
